Time,TemperatureF,DewpointF,PressureIn,WindDirection,WindDirectionDegrees,WindSpeedMPH,WindSpeedGustMPH,Humidity,HourlyPrecipIn,Conditions,Clouds,dailyrainin,SoftwareType,DateUTC
2013-01-20 00:00:00,8.2,-3.9,30.26,SW,221,1.0,4.0,57,0.00,,---,0.00,VWS V14.01,2013-01-20 09:00:00,
2013-01-20 00:02:00,8.3,-3.8,30.26,SW,221,0.0,2.0,57,0.00,,---,0.00,VWS V14.01,2013-01-20 09:02:00,
2013-01-20 00:07:00,8.2,-3.9,30.26,SW,221,0.0,2.0,57,0.00,,---,0.00,VWS V14.01,2013-01-20 09:07:00,
2013-01-20 00:12:00,8.0,-4.4,30.26,SW,221,0.0,2.0,56,0.00,,---,0.00,VWS V14.01,2013-01-20 09:12:00,
2013-01-20 00:17:00,7.7,-4.3,30.26,SW,221,0.0,2.0,57,0.00,,---,0.00,VWS V14.01,2013-01-20 09:17:00,
2013-01-20 00:22:00,7.6,-4.1,30.26,SW,221,1.0,2.0,58,0.00,,---,0.00,VWS V14.01,2013-01-20 09:22:00,
2013-01-20 00:27:00,7.5,-4.2,30.25,SW,221,0.0,2.0,58,0.00,,---,0.00,VWS V14.01,2013-01-20 09:27:00,
2013-01-20 00:30:00,7.5,-4.2,30.25,SW,221,0.0,2.0,58,0.00,,---,0.00,VWS V14.01,2013-01-20 09:30:00,
2013-01-20 00:32:00,7.5,-4.2,30.25,SW,221,0.0,2.0,58,0.00,,---,0.00,VWS V14.01,2013-01-20 09:32:00,
2013-01-20 00:37:00,7.5,-3.8,30.25,SW,221,0.0,2.0,59,0.00,,---,0.00,VWS V14.01,2013-01-20 09:37:00,
2013-01-20 00:42:00,7.5,-4.2,30.25,SW,221,0.0,2.0,58,0.00,,---,0.00,VWS V14.01,2013-01-20 09:42:00,
2013-01-20 00:47:00,7.5,-3.8,30.25,SW,221,2.0,2.0,59,0.00,,---,0.00,VWS V14.01,2013-01-20 09:47:00,
2013-01-20 00:52:00,7.4,-4.6,30.25,SW,221,1.0,2.0,57,0.00,,---,0.00,VWS V14.01,2013-01-20 09:52:00,
2013-01-20 00:57:00,7.6,-4.4,30.24,SW,221,0.0,2.0,57,0.00,,---,0.00,VWS V14.01,2013-01-20 09:57:00,
2013-01-20 01:00:00,7.7,-4.3,30.24,SW,221,1.0,2.0,57,0.00,,---,0.00,VWS V14.01,2013-01-20 10:00:00,
2013-01-20 01:02:00,7.7,-4.0,30.24,SW,221,0.0,1.0,58,0.00,,---,0.00,VWS V14.01,2013-01-20 10:02:00,
2013-01-20 01:07:00,7.8,-3.5,30.23,SW,221,1.0,2.0,59,0.00,,---,0.00,VWS V14.01,2013-01-20 10:07:00,
2013-01-20 01:12:00,8.0,-3.7,30.23,SW,221,0.0,4.0,58,0.00,,---,0.00,VWS V14.01,2013-01-20 10:12:00,
2013-01-20 01:17:00,8.1,-3.6,30.24,SW,221,0.0,4.0,58,0.00,,---,0.00,VWS V14.01,2013-01-20 10:17:00,
2013-01-20 01:24:00,8.0,-4.1,30.22,SW,221,2.0,4.0,57,0.00,,---,0.00,VWS V14.01,2013-01-20 10:24:00,
2013-01-20 01:29:00,8.2,-3.2,30.23,SW,221,0.0,4.0,59,0.00,,---,0.00,VWS V14.01,2013-01-20 10:29:00,
2013-01-20 01:30:00,8.2,-3.2,30.23,SW,221,0.0,4.0,59,0.00,,---,0.00,VWS V14.01,2013-01-20 10:30:00,
2013-01-20 01:34:00,8.0,-3.7,30.23,SW,221,0.0,1.0,58,0.00,,---,0.00,VWS V14.01,2013-01-20 10:34:00,
2013-01-20 01:39:00,7.9,-3.8,30.23,SW,221,0.0,2.0,58,0.00,,---,0.00,VWS V14.01,2013-01-20 10:39:00,
2013-01-20 01:47:00,7.8,-3.2,30.22,SW,221,0.0,0.0,60,0.00,,---,0.00,VWS V14.01,2013-01-20 10:47:00,
2013-01-20 01:52:00,7.9,-3.1,30.23,SW,221,0.0,2.0,60,0.00,,---,0.00,VWS V14.01,2013-01-20 10:52:00,
2013-01-20 01:57:00,7.9,-2.7,30.22,SW,221,0.0,2.0,61,0.00,,---,0.00,VWS V14.01,2013-01-20 10:57:00,
2013-01-20 02:00:00,7.9,-2.7,30.22,SW,221,0.0,2.0,61,0.00,,---,0.00,VWS V14.01,2013-01-20 11:00:00,
2013-01-20 02:02:00,7.9,-2.7,30.22,SW,221,0.0,0.0,61,0.00,,---,0.00,VWS V14.01,2013-01-20 11:02:00,
2013-01-20 02:07:00,7.9,-2.4,30.22,SW,221,0.0,0.0,62,0.00,,---,0.00,VWS V14.01,2013-01-20 11:07:00,
2013-01-20 02:12:00,8.0,-3.0,30.21,SW,221,1.0,5.0,60,0.00,,---,0.00,VWS V14.01,2013-01-20 11:12:00,
2013-01-20 02:17:00,8.2,-2.5,30.21,SW,221,2.0,5.0,61,0.00,,---,0.00,VWS V14.01,2013-01-20 11:17:00,
2013-01-20 02:22:00,8.2,-2.1,30.21,SW,221,0.0,5.0,62,0.00,,---,0.00,VWS V14.01,2013-01-20 11:22:00,
2013-01-20 02:27:00,8.3,-2.0,30.21,SW,221,0.0,5.0,62,0.00,,---,0.00,VWS V14.01,2013-01-20 11:27:00,
2013-01-20 02:30:00,8.4,-2.3,30.21,SW,221,0.0,5.0,61,0.00,,---,0.00,VWS V14.01,2013-01-20 11:30:00,
2013-01-20 02:32:00,8.3,-2.0,30.21,SW,221,1.0,1.0,62,0.00,,---,0.00,VWS V14.01,2013-01-20 11:32:00,
2013-01-20 02:37:00,8.5,-1.8,30.21,SW,221,2.0,4.0,62,0.00,,---,0.00,VWS V14.01,2013-01-20 11:37:00,
2013-01-20 02:42:00,8.7,-1.6,30.21,SW,221,0.0,4.0,62,0.00,,---,0.00,VWS V14.01,2013-01-20 11:42:00,
2013-01-20 02:47:00,8.7,-1.3,30.21,SW,221,0.0,4.0,63,0.00,,---,0.00,VWS V14.01,2013-01-20 11:47:00,
2013-01-20 02:52:00,8.6,-1.7,30.21,SW,221,0.0,4.0,62,0.00,,---,0.00,VWS V14.01,2013-01-20 11:52:00,
2013-01-20 02:57:00,8.6,-2.1,30.21,SW,221,0.0,4.0,61,0.00,,---,0.00,VWS V14.01,2013-01-20 11:57:00,
2013-01-20 03:00:00,8.5,-2.5,30.20,SW,221,0.0,4.0,60,0.00,,---,0.00,VWS V14.01,2013-01-20 12:00:00,
2013-01-20 03:02:00,8.5,-2.5,30.20,SW,221,0.0,0.0,60,0.00,,---,0.00,VWS V14.01,2013-01-20 12:02:00,
2013-01-20 03:07:00,8.5,-1.8,30.20,SW,221,0.0,0.0,62,0.00,,---,0.00,VWS V14.01,2013-01-20 12:07:00,
2013-01-20 03:12:00,8.3,-2.4,30.21,SW,221,1.0,1.0,61,0.00,,---,0.00,VWS V14.01,2013-01-20 12:12:00,
2013-01-20 03:17:00,8.0,-2.3,30.21,SW,221,0.0,1.0,62,0.00,,---,0.00,VWS V14.01,2013-01-20 12:17:00,
2013-01-20 03:22:00,7.6,-3.0,30.21,SW,221,0.0,1.0,61,0.00,,---,0.00,VWS V14.01,2013-01-20 12:22:00,
2013-01-20 03:27:00,7.4,-2.5,30.21,SW,221,0.0,1.0,63,0.00,,---,0.00,VWS V14.01,2013-01-20 12:27:00,
2013-01-20 03:30:00,7.3,-3.0,30.21,SW,221,0.0,1.0,62,0.00,,---,0.00,VWS V14.01,2013-01-20 12:30:00,
2013-01-20 03:32:00,7.4,-2.5,30.21,SW,221,0.0,0.0,63,0.00,,---,0.00,VWS V14.01,2013-01-20 12:32:00,
2013-01-20 03:43:00,7.4,-2.5,30.21,SW,221,0.0,0.0,63,0.00,,---,0.00,VWS V14.01,2013-01-20 12:43:00,
2013-01-20 03:48:00,7.3,-3.0,30.21,SW,221,0.0,1.0,62,0.00,,---,0.00,VWS V14.01,2013-01-20 12:48:00,
2013-01-20 03:53:00,7.2,-2.7,30.21,SW,221,0.0,1.0,63,0.00,,---,0.00,VWS V14.01,2013-01-20 12:53:00,
2013-01-20 03:58:00,7.1,-2.8,30.21,SW,221,0.0,1.0,63,0.00,,---,0.00,VWS V14.01,2013-01-20 12:58:00,
2013-01-20 04:00:00,7.2,-2.7,30.22,SW,221,0.0,1.0,63,0.00,,---,0.00,VWS V14.01,2013-01-20 13:00:00,
2013-01-20 04:03:00,7.1,-2.8,30.22,SW,221,0.0,0.0,63,0.00,,---,0.00,VWS V14.01,2013-01-20 13:03:00,
2013-01-20 04:08:00,7.1,-2.8,30.21,SW,221,0.0,0.0,63,0.00,,---,0.00,VWS V14.01,2013-01-20 13:08:00,
2013-01-20 04:13:00,6.9,-3.3,30.21,SW,221,0.0,0.0,62,0.00,,---,0.00,VWS V14.01,2013-01-20 13:13:00,
2013-01-20 04:18:00,6.9,-2.7,30.21,SW,221,0.0,0.0,64,0.00,,---,0.00,VWS V14.01,2013-01-20 13:18:00,
2013-01-20 04:23:00,7.0,-2.3,30.21,SW,221,1.0,1.0,65,0.00,,---,0.00,VWS V14.01,2013-01-20 13:23:00,
2013-01-20 04:28:00,7.1,-2.2,30.21,SW,221,1.0,2.0,65,0.00,,---,0.00,VWS V14.01,2013-01-20 13:28:00,
2013-01-20 04:30:00,7.3,-2.0,30.21,SW,221,0.0,2.0,65,0.00,,---,0.00,VWS V14.01,2013-01-20 13:30:00,
2013-01-20 04:33:00,7.3,-1.7,30.21,SW,221,0.0,1.0,66,0.00,,---,0.00,VWS V14.01,2013-01-20 13:33:00,
2013-01-20 04:38:00,7.3,-2.3,30.21,SW,221,1.0,4.0,64,0.00,,---,0.00,VWS V14.01,2013-01-20 13:38:00,
2013-01-20 04:43:00,7.3,-2.3,30.21,SW,221,1.0,4.0,64,0.00,,---,0.00,VWS V14.01,2013-01-20 13:43:00,
2013-01-20 04:48:00,7.2,-3.1,30.21,SW,221,2.0,5.0,62,0.00,,---,0.00,VWS V14.01,2013-01-20 13:48:00,
2013-01-20 04:53:00,7.2,-2.7,30.22,SW,221,2.0,5.0,63,0.00,,---,0.00,VWS V14.01,2013-01-20 13:53:00,
2013-01-20 04:58:00,7.2,-2.7,30.21,SW,221,1.0,5.0,63,0.00,,---,0.00,VWS V14.01,2013-01-20 13:58:00,
2013-01-20 05:00:00,7.3,-2.6,30.21,SW,221,0.0,5.0,63,0.00,,---,0.00,VWS V14.01,2013-01-20 14:00:00,
2013-01-20 05:03:00,7.4,-2.5,30.21,SW,221,0.0,1.0,63,0.00,,---,0.00,VWS V14.01,2013-01-20 14:03:00,
2013-01-20 05:08:00,7.7,-2.3,30.21,SW,221,0.0,1.0,63,0.00,,---,0.00,VWS V14.01,2013-01-20 14:08:00,
2013-01-20 05:13:00,8.0,-1.6,30.21,SW,221,0.0,1.0,64,0.00,,---,0.00,VWS V14.01,2013-01-20 14:13:00,
2013-01-20 05:18:00,8.5,-1.2,30.21,SW,221,0.0,1.0,64,0.00,,---,0.00,VWS V14.01,2013-01-20 14:18:00,
2013-01-20 05:23:00,8.8,-0.2,30.20,SW,221,0.0,1.0,66,0.00,,---,0.00,VWS V14.01,2013-01-20 14:23:00,
2013-01-20 05:28:00,8.9,0.2,30.21,SW,221,0.0,1.0,67,0.00,,---,0.00,VWS V14.01,2013-01-20 14:28:00,
2013-01-20 05:30:00,8.9,-0.1,30.20,SW,221,0.0,1.0,66,0.00,,---,0.00,VWS V14.01,2013-01-20 14:30:00,
2013-01-20 05:33:00,8.7,-0.6,30.20,SW,221,0.0,0.0,65,0.00,,---,0.00,VWS V14.01,2013-01-20 14:33:00,
2013-01-20 05:38:00,8.6,-0.7,30.20,SW,221,0.0,1.0,65,0.00,,---,0.00,VWS V14.01,2013-01-20 14:38:00,
2013-01-20 05:43:00,8.6,0.2,30.21,SW,221,0.0,1.0,68,0.00,,---,0.00,VWS V14.01,2013-01-20 14:43:00,
2013-01-20 05:48:00,8.7,0.3,30.20,SW,221,4.0,4.0,68,0.00,,---,0.00,VWS V14.01,2013-01-20 14:48:00,
2013-01-20 05:53:00,9.0,1.2,30.20,SW,221,1.0,6.0,70,0.00,,---,0.00,VWS V14.01,2013-01-20 14:53:00,
2013-01-20 05:58:00,9.4,2.5,30.20,SW,221,1.0,6.0,73,0.00,,---,0.00,VWS V14.01,2013-01-20 14:58:00,
2013-01-20 06:00:00,9.4,3.1,30.20,SW,221,1.0,6.0,75,0.00,,---,0.00,VWS V14.01,2013-01-20 15:00:00,
2013-01-20 06:03:00,9.4,3.7,30.20,SW,221,3.0,4.0,77,0.00,,---,0.00,VWS V14.01,2013-01-20 15:03:00,
2013-01-20 06:08:00,9.6,4.4,30.19,SW,221,1.0,4.0,79,0.00,,---,0.00,VWS V14.01,2013-01-20 15:08:00,
2013-01-20 06:13:00,9.5,4.6,30.19,SW,221,1.0,5.0,80,0.00,,---,0.00,VWS V14.01,2013-01-20 15:13:00,
2013-01-20 06:18:00,9.4,4.8,30.19,SW,221,1.0,5.0,81,0.00,,---,0.00,VWS V14.01,2013-01-20 15:18:00,
2013-01-20 06:23:00,9.2,5.1,30.20,SW,221,0.0,5.0,83,0.00,,---,0.00,VWS V14.01,2013-01-20 15:23:00,
2013-01-20 06:28:00,9.1,5.0,30.19,SW,221,0.0,5.0,83,0.00,,---,0.00,VWS V14.01,2013-01-20 15:28:00,
2013-01-20 06:30:00,8.9,4.8,30.19,SW,221,0.0,5.0,83,0.00,,---,0.00,VWS V14.01,2013-01-20 15:30:00,
2013-01-20 06:33:00,8.7,4.6,30.19,SW,221,0.0,1.0,83,0.00,,---,0.00,VWS V14.01,2013-01-20 15:33:00,
2013-01-20 06:38:00,8.3,4.2,30.19,SW,221,0.0,1.0,83,0.00,,---,0.00,VWS V14.01,2013-01-20 15:38:00,
2013-01-20 06:43:00,8.0,4.2,30.19,SW,221,0.0,1.0,84,0.00,,---,0.00,VWS V14.01,2013-01-20 15:43:00,
2013-01-20 06:48:00,8.0,4.4,30.20,SW,221,0.0,1.0,85,0.00,,---,0.00,VWS V14.01,2013-01-20 15:48:00,
2013-01-20 06:53:00,7.8,4.0,30.20,SW,221,0.0,2.0,84,0.00,,---,0.00,VWS V14.01,2013-01-20 15:53:00,
2013-01-20 06:58:00,7.5,3.9,30.19,SW,221,1.0,2.0,85,0.00,,---,0.00,VWS V14.01,2013-01-20 15:58:00,
2013-01-20 07:00:00,7.6,4.3,30.19,SW,221,2.0,2.0,86,0.00,,---,0.00,VWS V14.01,2013-01-20 16:00:00,
2013-01-20 07:03:00,7.7,4.4,30.19,SW,221,0.0,2.0,86,0.00,,---,0.00,VWS V14.01,2013-01-20 16:03:00,
2013-01-20 07:08:00,7.8,4.5,30.19,SW,221,0.0,2.0,86,0.00,,---,0.00,VWS V14.01,2013-01-20 16:08:00,
2013-01-20 07:13:00,7.9,4.8,30.19,SW,221,1.0,2.0,87,0.00,,---,0.00,VWS V14.01,2013-01-20 16:13:00,
2013-01-20 07:18:00,7.9,4.3,30.19,SW,221,0.0,2.0,85,0.00,,---,0.00,VWS V14.01,2013-01-20 16:18:00,
2013-01-20 07:23:00,7.8,4.5,30.19,SW,221,0.0,2.0,86,0.00,,---,0.00,VWS V14.01,2013-01-20 16:23:00,
2013-01-20 07:28:00,8.0,4.9,30.18,SW,221,2.0,4.0,87,0.00,,---,0.00,VWS V14.01,2013-01-20 16:28:00,
2013-01-20 07:30:00,8.2,5.4,30.18,SW,221,5.0,8.0,88,0.00,,---,0.00,VWS V14.01,2013-01-20 16:30:00,
2013-01-20 07:33:00,8.4,5.6,30.18,SW,221,0.0,5.0,88,0.00,,---,0.00,VWS V14.01,2013-01-20 16:33:00,
2013-01-20 07:38:00,8.8,6.0,30.18,SW,221,1.0,5.0,88,0.00,,---,0.00,VWS V14.01,2013-01-20 16:38:00,
2013-01-20 07:43:00,9.2,6.1,30.19,SW,221,0.0,6.0,87,0.00,,---,0.00,VWS V14.01,2013-01-20 16:43:00,
2013-01-20 07:48:00,9.3,6.2,30.19,SW,221,0.0,6.0,87,0.00,,---,0.00,VWS V14.01,2013-01-20 16:48:00,
2013-01-20 07:53:00,9.5,6.4,30.19,SW,221,0.0,6.0,87,0.00,,---,0.00,VWS V14.01,2013-01-20 16:53:00,
2013-01-20 07:58:00,9.6,6.5,30.19,SW,221,0.0,6.0,87,0.00,,---,0.00,VWS V14.01,2013-01-20 16:58:00,
2013-01-20 08:00:00,9.7,6.6,30.19,SW,221,0.0,6.0,87,0.00,,---,0.00,VWS V14.01,2013-01-20 17:00:00,
2013-01-20 08:03:00,9.7,6.6,30.19,SW,221,0.0,0.0,87,0.00,,---,0.00,VWS V14.01,2013-01-20 17:03:00,
2013-01-20 08:08:00,9.6,6.5,30.19,SW,221,0.0,0.0,87,0.00,,---,0.00,VWS V14.01,2013-01-20 17:08:00,
2013-01-20 08:13:00,9.4,6.1,30.19,SW,221,0.0,0.0,86,0.00,,---,0.00,VWS V14.01,2013-01-20 17:13:00,
2013-01-20 08:18:00,9.1,5.8,30.18,SW,221,0.0,2.0,86,0.00,,---,0.00,VWS V14.01,2013-01-20 17:18:00,
2013-01-20 08:23:00,9.1,6.0,30.18,SW,221,0.0,2.0,87,0.00,,---,0.00,VWS V14.01,2013-01-20 17:23:00,
2013-01-20 08:28:00,9.2,6.1,30.18,SW,221,0.0,2.0,87,0.00,,---,0.00,VWS V14.01,2013-01-20 17:28:00,
2013-01-20 08:30:00,9.3,6.2,30.19,SW,221,0.0,2.0,87,0.00,,---,0.00,VWS V14.01,2013-01-20 17:30:00,
2013-01-20 08:33:00,9.3,6.2,30.19,SW,221,0.0,0.0,87,0.00,,---,0.00,VWS V14.01,2013-01-20 17:33:00,
2013-01-20 08:38:00,9.4,6.3,30.18,SW,221,0.0,2.0,87,0.00,,---,0.00,VWS V14.01,2013-01-20 17:38:00,
2013-01-20 08:43:00,9.0,5.4,30.19,SW,221,0.0,3.0,85,0.00,,---,0.00,VWS V14.01,2013-01-20 17:43:00,
2013-01-20 08:48:00,8.5,4.9,30.18,SW,221,1.0,3.0,85,0.00,,---,0.00,VWS V14.01,2013-01-20 17:48:00,
2013-01-20 08:53:00,8.3,5.0,30.18,SW,221,0.0,3.0,86,0.00,,---,0.00,VWS V14.01,2013-01-20 17:53:00,
2013-01-20 08:58:00,8.4,5.3,30.18,SW,221,0.0,3.0,87,0.00,,---,0.00,VWS V14.01,2013-01-20 17:58:00,
2013-01-20 09:00:00,8.5,5.4,30.18,SW,221,0.0,3.0,87,0.00,,---,0.00,VWS V14.01,2013-01-20 18:00:00,
2013-01-20 09:03:00,8.5,5.4,30.18,SW,221,0.0,1.0,87,0.00,,---,0.00,VWS V14.01,2013-01-20 18:03:00,
2013-01-20 09:07:00,8.4,5.3,30.18,SW,221,0.0,2.0,87,0.00,,---,0.00,VWS V14.01,2013-01-20 18:07:00,
2013-01-20 09:12:00,8.4,5.3,30.18,SW,221,0.0,3.0,87,0.00,,---,0.00,VWS V14.01,2013-01-20 18:12:00,
2013-01-20 09:17:00,8.5,5.4,30.18,SW,221,0.0,3.0,87,0.00,,---,0.00,VWS V14.01,2013-01-20 18:17:00,
2013-01-20 09:22:00,8.3,5.2,30.19,SW,221,0.0,3.0,87,0.00,,---,0.00,VWS V14.01,2013-01-20 18:22:00,
2013-01-20 09:27:00,8.1,4.8,30.19,SW,221,0.0,3.0,86,0.00,,---,0.00,VWS V14.01,2013-01-20 18:27:00,
2013-01-20 09:30:00,8.0,4.9,30.18,SW,221,0.0,3.0,87,0.00,,---,0.00,VWS V14.01,2013-01-20 18:30:00,
2013-01-20 09:32:00,8.0,4.9,30.18,SW,221,1.0,2.0,87,0.00,,---,0.00,VWS V14.01,2013-01-20 18:32:00,
2013-01-20 09:37:00,8.3,5.5,30.18,SW,221,0.0,3.0,88,0.00,,---,0.00,VWS V14.01,2013-01-20 18:37:00,
2013-01-20 09:42:00,8.6,5.8,30.19,SW,221,0.0,3.0,88,0.00,,---,0.00,VWS V14.01,2013-01-20 18:42:00,
2013-01-20 09:47:00,8.4,5.3,30.20,SW,221,0.0,3.0,87,0.00,,---,0.00,VWS V14.01,2013-01-20 18:47:00,
2013-01-20 09:52:00,8.4,5.3,30.20,SW,221,0.0,3.0,87,0.00,,---,0.00,VWS V14.01,2013-01-20 18:52:00,
2013-01-20 09:57:00,8.3,5.2,30.19,SW,221,0.0,3.0,87,0.00,,---,0.00,VWS V14.01,2013-01-20 18:57:00,
2013-01-20 10:00:00,8.4,5.3,30.19,SW,221,1.0,3.0,87,0.00,,---,0.00,VWS V14.01,2013-01-20 19:00:00,
2013-01-20 10:02:00,8.3,5.5,30.18,SW,221,1.0,3.0,88,0.00,,---,0.00,VWS V14.01,2013-01-20 19:02:00,
2013-01-20 10:07:00,8.1,5.0,30.19,SW,221,1.0,3.0,87,0.00,,---,0.00,VWS V14.01,2013-01-20 19:07:00,
2013-01-20 10:12:00,7.9,4.8,30.18,SW,221,0.0,3.0,87,0.00,,---,0.00,VWS V14.01,2013-01-20 19:12:00,
2013-01-20 10:17:00,8.0,5.2,30.18,SW,221,2.0,3.0,88,0.00,,---,0.00,VWS V14.01,2013-01-20 19:17:00,
2013-01-20 10:22:00,8.5,5.9,30.19,SW,221,0.0,3.0,89,0.00,,---,0.00,VWS V14.01,2013-01-20 19:22:00,
2013-01-20 10:27:00,8.6,5.8,30.19,SW,221,1.0,3.0,88,0.00,,---,0.00,VWS V14.01,2013-01-20 19:27:00,
2013-01-20 10:30:00,8.6,5.5,30.19,SW,221,0.0,3.0,87,0.00,,---,0.00,VWS V14.01,2013-01-20 19:30:00,
2013-01-20 10:32:00,8.5,5.4,30.19,SW,221,0.0,0.0,87,0.00,,---,0.00,VWS V14.01,2013-01-20 19:32:00,
2013-01-20 10:37:00,8.5,5.4,30.20,SW,221,0.0,1.0,87,0.00,,---,0.00,VWS V14.01,2013-01-20 19:37:00,
2013-01-20 10:42:00,8.4,5.3,30.20,SW,221,0.0,1.0,87,0.00,,---,0.00,VWS V14.01,2013-01-20 19:42:00,
2013-01-20 10:47:00,8.2,5.1,30.20,SW,221,0.0,1.0,87,0.00,,---,0.00,VWS V14.01,2013-01-20 19:47:00,
2013-01-20 10:52:00,8.1,5.0,30.20,SW,221,0.0,1.0,87,0.00,,---,0.00,VWS V14.01,2013-01-20 19:52:00,
2013-01-20 10:57:00,8.0,4.9,30.20,SW,221,0.0,1.0,87,0.00,,---,0.00,VWS V14.01,2013-01-20 19:57:00,
2013-01-20 11:00:00,8.1,5.3,30.20,SW,221,0.0,1.0,88,0.00,,---,0.00,VWS V14.01,2013-01-20 20:00:00,
2013-01-20 11:02:00,8.1,5.3,30.20,SW,221,0.0,0.0,88,0.00,,---,0.00,VWS V14.01,2013-01-20 20:02:00,
2013-01-20 11:07:00,8.2,5.4,30.21,SW,221,0.0,3.0,88,0.00,,---,0.00,VWS V14.01,2013-01-20 20:07:00,
2013-01-20 11:12:00,8.1,5.3,30.20,SW,221,1.0,3.0,88,0.00,,---,0.00,VWS V14.01,2013-01-20 20:12:00,
2013-01-20 11:17:00,8.3,5.7,30.20,SW,221,0.0,3.0,89,0.00,,---,0.00,VWS V14.01,2013-01-20 20:17:00,
2013-01-20 11:22:00,8.8,6.2,30.19,SW,221,0.0,3.0,89,0.00,,---,0.00,VWS V14.01,2013-01-20 20:22:00,
2013-01-20 11:27:00,9.1,6.5,30.19,SW,221,0.0,3.0,89,0.00,,---,0.00,VWS V14.01,2013-01-20 20:27:00,
2013-01-20 11:30:00,9.5,7.2,30.19,SW,221,0.0,3.0,90,0.00,,---,0.00,VWS V14.01,2013-01-20 20:30:00,
2013-01-20 11:32:00,9.6,7.3,30.19,SW,221,0.0,0.0,90,0.00,,---,0.00,VWS V14.01,2013-01-20 20:32:00,
2013-01-20 11:37:00,10.1,7.5,30.20,SW,221,0.0,1.0,89,0.00,,---,0.00,VWS V14.01,2013-01-20 20:37:00,
2013-01-20 11:42:00,10.1,7.3,30.20,SW,221,0.0,1.0,88,0.00,,---,0.00,VWS V14.01,2013-01-20 20:42:00,
2013-01-20 11:47:00,9.8,6.7,30.20,SW,221,0.0,1.0,87,0.00,,---,0.00,VWS V14.01,2013-01-20 20:47:00,
2013-01-20 11:52:00,9.5,6.4,30.20,SW,221,0.0,1.0,87,0.00,,---,0.00,VWS V14.01,2013-01-20 20:52:00,
2013-01-20 11:57:00,9.4,6.3,30.20,SW,221,0.0,1.0,87,0.00,,---,0.00,VWS V14.01,2013-01-20 20:57:00,
2013-01-20 12:00:00,9.3,6.2,30.21,SW,221,0.0,1.0,87,0.00,,---,0.00,VWS V14.01,2013-01-20 21:00:00,
2013-01-20 12:02:00,9.4,6.3,30.21,SW,221,0.0,0.0,87,0.00,,---,0.00,VWS V14.01,2013-01-20 21:02:00,
2013-01-20 12:07:00,9.3,6.2,30.20,SW,221,0.0,1.0,87,0.00,,---,0.00,VWS V14.01,2013-01-20 21:07:00,
2013-01-20 12:12:00,9.3,6.2,30.21,SW,221,0.0,1.0,87,0.00,,---,0.00,VWS V14.01,2013-01-20 21:12:00,
2013-01-20 12:17:00,9.3,6.2,30.22,SW,221,0.0,1.0,87,0.00,,---,0.00,VWS V14.01,2013-01-20 21:17:00,
2013-01-20 12:22:00,9.2,6.4,30.21,SW,221,1.0,1.0,88,0.00,,---,0.00,VWS V14.01,2013-01-20 21:22:00,
2013-01-20 12:27:00,9.4,6.6,30.21,SW,221,0.0,1.0,88,0.00,,---,0.00,VWS V14.01,2013-01-20 21:27:00,
2013-01-20 12:30:00,9.6,6.5,30.20,SW,221,0.0,3.0,87,0.00,,---,0.00,VWS V14.01,2013-01-20 21:30:00,
2013-01-20 12:32:00,9.6,6.5,30.20,SW,221,1.0,2.0,87,0.00,,---,0.00,VWS V14.01,2013-01-20 21:32:00,
2013-01-20 12:37:00,9.7,6.6,30.21,SW,221,0.0,2.0,87,0.00,,---,0.00,VWS V14.01,2013-01-20 21:37:00,
2013-01-20 12:42:00,9.8,6.7,30.21,SW,221,0.0,2.0,87,0.00,,---,0.00,VWS V14.01,2013-01-20 21:42:00,
2013-01-20 12:47:00,9.9,6.8,30.21,SW,221,0.0,2.0,87,0.00,,---,0.00,VWS V14.01,2013-01-20 21:47:00,
2013-01-20 12:52:00,10.0,6.9,30.21,SW,221,0.0,2.0,87,0.00,,---,0.00,VWS V14.01,2013-01-20 21:52:00,
2013-01-20 12:57:00,10.1,7.0,30.21,SW,221,0.0,2.0,87,0.00,,---,0.00,VWS V14.01,2013-01-20 21:57:00,
2013-01-20 13:00:00,10.3,7.2,30.21,SW,221,0.0,2.0,87,0.00,,---,0.00,VWS V14.01,2013-01-20 22:00:00,
2013-01-20 13:02:00,10.3,7.2,30.21,SW,221,0.0,0.0,87,0.00,,---,0.00,VWS V14.01,2013-01-20 22:02:00,
2013-01-20 13:07:00,10.3,7.2,30.21,SW,221,0.0,1.0,87,0.00,,---,0.00,VWS V14.01,2013-01-20 22:07:00,
2013-01-20 13:12:00,10.3,7.2,30.21,SW,221,0.0,1.0,87,0.00,,---,0.00,VWS V14.01,2013-01-20 22:12:00,
2013-01-20 13:17:00,10.4,7.3,30.21,SW,221,1.0,1.0,87,0.00,,---,0.00,VWS V14.01,2013-01-20 22:17:00,
2013-01-20 13:22:00,10.4,7.3,30.20,SW,221,0.0,1.0,87,0.00,,---,0.00,VWS V14.01,2013-01-20 22:22:00,
2013-01-20 13:27:00,10.4,7.1,30.20,SW,221,0.0,1.0,86,0.00,,---,0.00,VWS V14.01,2013-01-20 22:27:00,
2013-01-20 13:30:00,10.4,7.1,30.21,SW,221,0.0,1.0,86,0.00,,---,0.00,VWS V14.01,2013-01-20 22:30:00,
2013-01-20 13:32:00,10.3,6.9,30.21,SW,221,0.0,0.0,86,0.00,,---,0.00,VWS V14.01,2013-01-20 22:32:00,
2013-01-20 13:37:00,10.4,7.1,30.21,SW,221,0.0,0.0,86,0.00,,---,0.00,VWS V14.01,2013-01-20 22:37:00,
2013-01-20 13:42:00,10.4,7.1,30.20,SW,221,0.0,0.0,86,0.00,,---,0.00,VWS V14.01,2013-01-20 22:42:00,
2013-01-20 13:47:00,10.4,7.3,30.20,SW,221,0.0,0.0,87,0.00,,---,0.00,VWS V14.01,2013-01-20 22:47:00,
2013-01-20 13:52:00,10.5,7.4,30.21,SW,221,1.0,2.0,87,0.00,,---,0.00,VWS V14.01,2013-01-20 22:52:00,
2013-01-20 13:58:00,10.4,7.3,30.21,SW,221,0.0,2.0,87,0.00,,---,0.00,VWS V14.01,2013-01-20 22:58:00,
2013-01-20 14:00:00,10.3,6.9,30.21,SW,221,0.0,2.0,86,0.00,,---,0.00,VWS V14.01,2013-01-20 23:00:00,
2013-01-20 14:03:00,10.2,6.8,30.21,SW,221,0.0,0.0,86,0.00,,---,0.00,VWS V14.01,2013-01-20 23:03:00,
2013-01-20 14:08:00,9.9,6.6,30.21,SW,221,0.0,1.0,86,0.00,,---,0.00,VWS V14.01,2013-01-20 23:08:00,
2013-01-20 14:17:00,9.7,6.4,30.21,SW,221,0.0,0.0,86,0.00,,---,0.00,VWS V14.01,2013-01-20 23:17:00,
2013-01-20 14:22:00,9.6,6.5,30.21,SW,221,0.0,0.0,87,0.00,,---,0.00,VWS V14.01,2013-01-20 23:22:00,
2013-01-20 14:27:00,9.5,6.4,30.21,SW,221,0.0,1.0,87,0.00,,---,0.00,VWS V14.01,2013-01-20 23:27:00,
2013-01-20 14:32:00,9.4,6.3,30.21,SW,221,0.0,1.0,87,0.00,,---,0.00,VWS V14.01,2013-01-20 23:32:00,
2013-01-20 14:37:00,9.4,6.1,30.20,SW,221,0.0,1.0,86,0.00,,---,0.00,VWS V14.01,2013-01-20 23:37:00,
2013-01-20 14:42:00,9.4,6.3,30.21,SW,221,0.0,1.0,87,0.00,,---,0.00,VWS V14.01,2013-01-20 23:42:00,
2013-01-20 14:47:00,9.5,6.4,30.20,SW,221,0.0,1.0,87,0.00,,---,0.00,VWS V14.01,2013-01-20 23:47:00,
2013-01-20 14:52:00,9.5,6.4,30.20,SW,221,0.0,1.0,87,0.00,,---,0.00,VWS V14.01,2013-01-20 23:52:00,
2013-01-20 14:57:00,9.6,6.5,30.20,SW,221,0.0,1.0,87,0.00,,---,0.00,VWS V14.01,2013-01-20 23:57:00,
2013-01-20 15:02:00,9.6,6.3,30.20,SW,221,0.0,0.0,86,0.00,,---,0.00,VWS V14.01,2013-01-21 00:02:00,
2013-01-20 15:07:00,9.6,6.3,30.21,SW,221,0.0,1.0,86,0.00,,---,0.00,VWS V14.01,2013-01-21 00:07:00,
2013-01-20 15:12:00,9.6,6.5,30.20,SW,221,0.0,1.0,87,0.00,,---,0.00,VWS V14.01,2013-01-21 00:12:00,
2013-01-20 15:17:00,9.6,6.5,30.20,SW,221,0.0,1.0,87,0.00,,---,0.00,VWS V14.01,2013-01-21 00:17:00,
2013-01-20 15:22:00,9.6,6.5,30.20,SW,221,0.0,1.0,87,0.00,,---,0.00,VWS V14.01,2013-01-21 00:22:00,
2013-01-20 15:27:00,9.6,6.5,30.19,SW,221,0.0,1.0,87,0.00,,---,0.00,VWS V14.01,2013-01-21 00:27:00,
2013-01-20 15:32:00,9.6,6.5,30.21,SW,221,2.0,2.0,87,0.00,,---,0.00,VWS V14.01,2013-01-21 00:32:00,
2013-01-20 15:37:00,9.5,6.4,30.20,SW,221,0.0,2.0,87,0.00,,---,0.00,VWS V14.01,2013-01-21 00:37:00,
2013-01-20 15:42:00,9.4,6.6,30.20,SW,221,0.0,2.0,88,0.00,,---,0.00,VWS V14.01,2013-01-21 00:42:00,
2013-01-20 15:48:00,9.2,6.4,30.20,SW,221,0.0,2.0,88,0.00,,---,0.00,VWS V14.01,2013-01-21 00:48:00,
2013-01-20 15:53:00,9.2,6.6,30.20,SW,221,0.0,2.0,89,0.00,,---,0.00,VWS V14.01,2013-01-21 00:53:00,
2013-01-20 15:58:00,9.1,6.3,30.20,SW,221,0.0,2.0,88,0.00,,---,0.00,VWS V14.01,2013-01-21 00:58:00,
2013-01-20 16:03:00,9.1,6.5,30.20,SW,221,0.0,0.0,89,0.00,,---,0.00,VWS V14.01,2013-01-21 01:03:00,
2013-01-20 16:08:00,9.0,6.4,30.21,SW,221,0.0,1.0,89,0.00,,---,0.00,VWS V14.01,2013-01-21 01:08:00,
2013-01-20 16:13:00,8.9,6.3,30.21,SW,221,0.0,1.0,89,0.00,,---,0.00,VWS V14.01,2013-01-21 01:13:00,
2013-01-20 16:18:00,8.9,6.3,30.21,SW,221,0.0,1.0,89,0.00,,---,0.00,VWS V14.01,2013-01-21 01:18:00,
2013-01-20 16:23:00,8.9,6.3,30.21,SW,221,0.0,1.0,89,0.00,,---,0.00,VWS V14.01,2013-01-21 01:23:00,
2013-01-20 16:28:00,8.9,6.3,30.21,SW,221,0.0,1.0,89,0.00,,---,0.00,VWS V14.01,2013-01-21 01:28:00,
2013-01-20 16:33:00,8.9,6.3,30.21,SW,221,0.0,0.0,89,0.00,,---,0.00,VWS V14.01,2013-01-21 01:33:00,
2013-01-20 16:38:00,9.0,6.4,30.22,SW,221,0.0,0.0,89,0.00,,---,0.00,VWS V14.01,2013-01-21 01:38:00,
2013-01-20 16:43:00,9.0,6.4,30.22,SW,221,0.0,0.0,89,0.00,,---,0.00,VWS V14.01,2013-01-21 01:43:00,
2013-01-20 16:48:00,9.0,6.4,30.22,SW,221,1.0,1.0,89,0.00,,---,0.00,VWS V14.01,2013-01-21 01:48:00,
2013-01-20 16:53:00,9.0,6.4,30.21,SW,221,0.0,1.0,89,0.00,,---,0.00,VWS V14.01,2013-01-21 01:53:00,
2013-01-20 16:58:00,8.9,6.3,30.22,SW,221,0.0,1.0,89,0.00,,---,0.00,VWS V14.01,2013-01-21 01:58:00,
2013-01-20 17:03:00,9.0,6.4,30.22,SW,221,0.0,0.0,89,0.00,,---,0.00,VWS V14.01,2013-01-21 02:03:00,
2013-01-20 17:08:00,9.0,6.4,30.21,SW,221,0.0,1.0,89,0.00,,---,0.00,VWS V14.01,2013-01-21 02:08:00,
2013-01-20 17:13:00,9.0,6.4,30.21,SW,221,0.0,1.0,89,0.00,,---,0.00,VWS V14.01,2013-01-21 02:13:00,
2013-01-20 17:18:00,9.1,6.5,30.21,SW,221,0.0,2.0,89,0.00,,---,0.00,VWS V14.01,2013-01-21 02:18:00,
2013-01-20 17:23:00,9.1,6.5,30.21,SW,221,1.0,2.0,89,0.00,,---,0.00,VWS V14.01,2013-01-21 02:23:00,
2013-01-20 17:28:00,9.0,6.4,30.21,SW,221,1.0,3.0,89,0.00,,---,0.00,VWS V14.01,2013-01-21 02:28:00,
2013-01-20 17:33:00,9.0,6.4,30.21,SW,221,0.0,2.0,89,0.00,,---,0.00,VWS V14.01,2013-01-21 02:33:00,
2013-01-20 17:38:00,9.0,6.4,30.20,SW,221,0.0,2.0,89,0.00,,---,0.00,VWS V14.01,2013-01-21 02:38:00,
2013-01-20 17:43:00,9.0,6.4,30.20,SW,221,2.0,2.0,89,0.00,,---,0.00,VWS V14.01,2013-01-21 02:43:00,
2013-01-20 17:48:00,9.0,6.4,30.20,SW,221,0.0,2.0,89,0.00,,---,0.00,VWS V14.01,2013-01-21 02:48:00,
2013-01-20 17:53:00,9.0,6.4,30.20,SW,221,0.0,2.0,89,0.00,,---,0.00,VWS V14.01,2013-01-21 02:53:00,
2013-01-20 17:58:00,9.1,6.5,30.20,SW,221,0.0,2.0,89,0.00,,---,0.00,VWS V14.01,2013-01-21 02:58:00,
2013-01-20 18:03:00,9.1,6.5,30.20,SW,221,0.0,0.0,89,0.00,,---,0.00,VWS V14.01,2013-01-21 03:03:00,
2013-01-20 18:08:00,9.1,6.5,30.21,SW,221,0.0,0.0,89,0.00,,---,0.00,VWS V14.01,2013-01-21 03:08:00,
2013-01-20 18:13:00,9.1,6.5,30.21,SW,221,0.0,0.0,89,0.00,,---,0.00,VWS V14.01,2013-01-21 03:13:00,
2013-01-20 18:18:00,9.1,6.5,30.21,SW,221,0.0,0.0,89,0.00,,---,0.00,VWS V14.01,2013-01-21 03:18:00,
2013-01-20 18:23:00,9.0,6.4,30.21,SW,221,0.0,0.0,89,0.00,,---,0.00,VWS V14.01,2013-01-21 03:23:00,
2013-01-20 18:28:00,9.0,6.4,30.21,SW,221,0.0,0.0,89,0.00,,---,0.00,VWS V14.01,2013-01-21 03:28:00,
2013-01-20 18:33:00,9.0,6.4,30.21,SW,221,0.0,0.0,89,0.00,,---,0.00,VWS V14.01,2013-01-21 03:33:00,
2013-01-20 18:38:00,9.0,6.4,30.20,SW,221,0.0,0.0,89,0.00,,---,0.00,VWS V14.01,2013-01-21 03:38:00,
2013-01-20 18:43:00,9.0,6.4,30.21,SW,221,0.0,0.0,89,0.00,,---,0.00,VWS V14.01,2013-01-21 03:43:00,
2013-01-20 18:48:00,9.0,6.4,30.21,SW,221,0.0,0.0,89,0.00,,---,0.00,VWS V14.01,2013-01-21 03:48:00,
2013-01-20 18:53:00,9.1,6.5,30.21,SW,221,0.0,0.0,89,0.00,,---,0.00,VWS V14.01,2013-01-21 03:53:00,
2013-01-20 18:58:00,9.1,6.5,30.21,SW,221,0.0,0.0,89,0.00,,---,0.00,VWS V14.01,2013-01-21 03:58:00,
2013-01-20 19:03:00,9.1,6.5,30.21,SW,221,0.0,0.0,89,0.00,,---,0.00,VWS V14.01,2013-01-21 04:03:00,
2013-01-20 19:08:00,9.1,6.5,30.21,SW,221,0.0,0.0,89,0.00,,---,0.00,VWS V14.01,2013-01-21 04:08:00,
2013-01-20 19:13:00,9.0,6.4,30.21,SW,221,0.0,0.0,89,0.00,,---,0.00,VWS V14.01,2013-01-21 04:13:00,
2013-01-20 19:18:00,9.0,6.4,30.22,SW,221,0.0,0.0,89,0.00,,---,0.00,VWS V14.01,2013-01-21 04:18:00,
2013-01-20 19:23:00,9.0,6.4,30.21,SW,221,0.0,0.0,89,0.00,,---,0.00,VWS V14.01,2013-01-21 04:23:00,
2013-01-20 19:28:00,9.0,6.4,30.21,SW,221,0.0,0.0,89,0.00,,---,0.00,VWS V14.01,2013-01-21 04:28:00,
2013-01-20 19:33:00,9.0,6.4,30.21,SW,221,0.0,0.0,89,0.00,,---,0.00,VWS V14.01,2013-01-21 04:33:00,
2013-01-20 19:38:00,9.0,6.4,30.21,SW,221,0.0,0.0,89,0.00,,---,0.00,VWS V14.01,2013-01-21 04:38:00,
2013-01-20 19:43:00,9.1,6.5,30.21,SW,221,0.0,0.0,89,0.00,,---,0.00,VWS V14.01,2013-01-21 04:43:00,
2013-01-20 19:48:00,9.1,6.5,30.21,SW,221,0.0,0.0,89,0.00,,---,0.00,VWS V14.01,2013-01-21 04:48:00,
2013-01-20 19:53:00,9.0,6.4,30.21,SW,221,0.0,0.0,89,0.00,,---,0.00,VWS V14.01,2013-01-21 04:53:00,
2013-01-20 19:58:00,9.0,6.4,30.21,SW,221,0.0,0.0,89,0.00,,---,0.00,VWS V14.01,2013-01-21 04:58:00,
2013-01-20 20:00:00,9.0,6.4,30.21,SW,221,0.0,2.0,89,0.00,,---,0.00,VWS V14.01,2013-01-21 05:00:00,
2013-01-20 20:01:00,9.0,6.4,30.21,SW,221,0.0,2.0,89,0.00,,---,0.00,VWS V14.01,2013-01-21 05:01:00,
2013-01-20 20:03:00,9.0,6.4,30.21,SW,221,0.0,0.0,89,0.00,,---,0.00,VWS V14.01,2013-01-21 05:03:00,
2013-01-20 20:08:00,9.0,6.4,30.21,SW,221,0.0,0.0,89,0.00,,---,0.00,VWS V14.01,2013-01-21 05:08:00,
2013-01-20 20:13:00,9.0,6.4,30.22,SW,221,0.0,0.0,89,0.00,,---,0.00,VWS V14.01,2013-01-21 05:13:00,
2013-01-20 20:18:00,9.1,6.5,30.21,SW,221,0.0,0.0,89,0.00,,---,0.00,VWS V14.01,2013-01-21 05:18:00,
2013-01-20 20:23:00,9.1,6.5,30.21,SW,221,0.0,0.0,89,0.00,,---,0.00,VWS V14.01,2013-01-21 05:23:00,
2013-01-20 20:28:00,9.1,6.5,30.21,SW,221,0.0,0.0,89,0.00,,---,0.00,VWS V14.01,2013-01-21 05:28:00,
2013-01-20 20:33:00,9.0,6.4,30.21,SW,221,0.0,0.0,89,0.00,,---,0.00,VWS V14.01,2013-01-21 05:33:00,
2013-01-20 20:38:00,9.0,6.4,30.21,SW,221,0.0,0.0,89,0.00,,---,0.00,VWS V14.01,2013-01-21 05:38:00,
2013-01-20 20:43:00,8.9,6.3,30.22,SW,221,0.0,0.0,89,0.00,,---,0.00,VWS V14.01,2013-01-21 05:43:00,
2013-01-20 20:48:00,8.8,6.2,30.22,SW,221,0.0,1.0,89,0.00,,---,0.00,VWS V14.01,2013-01-21 05:48:00,
2013-01-20 20:53:00,8.7,6.1,30.22,SW,221,1.0,1.0,89,0.00,,---,0.00,VWS V14.01,2013-01-21 05:53:00,
2013-01-20 20:58:00,8.4,5.8,30.22,SW,221,0.0,1.0,89,0.00,,---,0.00,VWS V14.01,2013-01-21 05:58:00,
2013-01-20 21:03:00,8.3,5.7,30.22,SW,221,0.0,1.0,89,0.00,,---,0.00,VWS V14.01,2013-01-21 06:03:00,
2013-01-20 21:08:00,8.1,5.5,30.22,SW,221,0.0,1.0,89,0.00,,---,0.00,VWS V14.01,2013-01-21 06:08:00,
2013-01-20 21:13:00,8.0,5.4,30.23,SW,221,0.0,2.0,89,0.00,,---,0.00,VWS V14.01,2013-01-21 06:13:00,
2013-01-20 21:18:00,7.9,5.6,30.22,SW,221,0.0,2.0,90,0.00,,---,0.00,VWS V14.01,2013-01-21 06:18:00,
2013-01-20 21:23:00,7.9,5.3,30.22,SW,221,0.0,2.0,89,0.00,,---,0.00,VWS V14.01,2013-01-21 06:23:00,
2013-01-20 21:28:00,8.0,5.4,30.23,SW,221,0.0,2.0,89,0.00,,---,0.00,VWS V14.01,2013-01-21 06:28:00,
2013-01-20 21:33:00,8.0,5.4,30.22,SW,221,0.0,0.0,89,0.00,,---,0.00,VWS V14.01,2013-01-21 06:33:00,
2013-01-20 21:38:00,8.0,5.4,30.22,SW,221,0.0,0.0,89,0.00,,---,0.00,VWS V14.01,2013-01-21 06:38:00,
2013-01-20 21:43:00,8.1,5.5,30.22,SW,221,0.0,0.0,89,0.00,,---,0.00,VWS V14.01,2013-01-21 06:43:00,
2013-01-20 21:48:00,8.2,5.6,30.22,SW,221,0.0,0.0,89,0.00,,---,0.00,VWS V14.01,2013-01-21 06:48:00,
2013-01-20 21:53:00,8.2,5.6,30.22,SW,221,0.0,0.0,89,0.00,,---,0.00,VWS V14.01,2013-01-21 06:53:00,
2013-01-20 21:58:00,8.2,5.6,30.22,SW,221,0.0,0.0,89,0.00,,---,0.00,VWS V14.01,2013-01-21 06:58:00,
2013-01-20 22:03:00,8.3,5.7,30.23,SW,221,0.0,1.0,89,0.00,,---,0.00,VWS V14.01,2013-01-21 07:03:00,
2013-01-20 22:08:00,8.3,5.7,30.23,SW,221,0.0,1.0,89,0.00,,---,0.00,VWS V14.01,2013-01-21 07:08:00,
2013-01-20 22:13:00,8.1,5.5,30.23,SW,221,0.0,1.0,89,0.00,,---,0.00,VWS V14.01,2013-01-21 07:13:00,
2013-01-20 22:18:00,8.1,5.5,30.23,SW,221,0.0,2.0,89,0.00,,---,0.00,VWS V14.01,2013-01-21 07:18:00,
2013-01-20 22:23:00,8.0,5.4,30.23,SW,221,0.0,2.0,89,0.00,,---,0.00,VWS V14.01,2013-01-21 07:23:00,
2013-01-20 22:28:00,8.0,5.4,30.23,SW,221,0.0,2.0,89,0.00,,---,0.00,VWS V14.01,2013-01-21 07:28:00,
2013-01-20 22:33:00,8.0,5.4,30.23,SW,221,0.0,1.0,89,0.00,,---,0.00,VWS V14.01,2013-01-21 07:33:00,
2013-01-20 22:38:00,8.1,5.5,30.23,SW,221,0.0,1.0,89,0.00,,---,0.00,VWS V14.01,2013-01-21 07:38:00,
2013-01-20 22:43:00,8.1,5.5,30.23,SW,221,0.0,1.0,89,0.00,,---,0.00,VWS V14.01,2013-01-21 07:43:00,
2013-01-20 22:48:00,8.1,5.5,30.23,SW,221,0.0,1.0,89,0.00,,---,0.00,VWS V14.01,2013-01-21 07:48:00,
2013-01-20 22:53:00,8.1,5.5,30.23,SW,221,0.0,1.0,89,0.00,,---,0.00,VWS V14.01,2013-01-21 07:53:00,
2013-01-20 22:58:00,8.1,5.5,30.23,SW,221,0.0,1.0,89,0.00,,---,0.00,VWS V14.01,2013-01-21 07:58:00,
2013-01-20 23:03:00,8.2,5.6,30.24,SW,221,0.0,0.0,89,0.00,,---,0.00,VWS V14.01,2013-01-21 08:03:00,
2013-01-20 23:08:00,8.2,5.6,30.24,SW,221,0.0,0.0,89,0.00,,---,0.00,VWS V14.01,2013-01-21 08:08:00,
2013-01-20 23:13:00,8.2,5.6,30.24,SW,221,0.0,0.0,89,0.00,,---,0.00,VWS V14.01,2013-01-21 08:13:00,
2013-01-20 23:18:00,8.2,5.6,30.24,SW,221,0.0,0.0,89,0.00,,---,0.00,VWS V14.01,2013-01-21 08:18:00,
2013-01-20 23:23:00,8.2,5.6,30.24,SW,221,0.0,0.0,89,0.00,,---,0.00,VWS V14.01,2013-01-21 08:23:00,
2013-01-20 23:28:00,8.3,5.7,30.24,SW,221,0.0,0.0,89,0.00,,---,0.00,VWS V14.01,2013-01-21 08:28:00,
2013-01-20 23:33:00,8.3,5.7,30.24,SW,221,0.0,0.0,89,0.00,,---,0.00,VWS V14.01,2013-01-21 08:33:00,
2013-01-20 23:38:00,8.4,5.8,30.24,SW,221,0.0,0.0,89,0.00,,---,0.00,VWS V14.01,2013-01-21 08:38:00,
2013-01-20 23:43:00,8.5,5.9,30.24,SW,221,0.0,0.0,89,0.00,,---,0.00,VWS V14.01,2013-01-21 08:43:00,
2013-01-20 23:48:00,8.5,5.9,30.24,SW,221,0.0,0.0,89,0.00,,---,0.00,VWS V14.01,2013-01-21 08:48:00,
2013-01-20 23:53:00,8.5,5.9,30.24,SW,221,0.0,0.0,89,0.00,,---,0.00,VWS V14.01,2013-01-21 08:53:00,
2013-01-20 23:58:00,8.5,5.9,30.24,SW,221,0.0,0.0,89,0.00,,---,0.00,VWS V14.01,2013-01-21 08:58:00,